sensor_id;sensor_type;location;lat;lon;timestamp;P1;durP1;ratioP1;P2;durP2;ratioP2
6973;SDS011;3527;52.376;8.990;2022-10-16T00:02:11;4.70;;;2.00;;
6973;SDS011;3527;52.376;8.990;2022-10-16T00:04:58;3.63;;;2.37;;
6973;SDS011;3527;52.376;8.990;2022-10-16T00:07:45;4.23;;;2.23;;
6973;SDS011;3527;52.376;8.990;2022-10-16T00:10:32;5.10;;;2.63;;
6973;SDS011;3527;52.376;8.990;2022-10-16T00:13:19;4.57;;;2.43;;
6973;SDS011;3527;52.376;8.990;2022-10-16T00:16:07;4.67;;;2.83;;
6973;SDS011;3527;52.376;8.990;2022-10-16T00:18:55;3.83;;;2.50;;
6973;SDS011;3527;52.376;8.990;2022-10-16T00:21:43;3.40;;;2.93;;
6973;SDS011;3527;52.376;8.990;2022-10-16T00:24:30;7.67;;;3.20;;
6973;SDS011;3527;52.376;8.990;2022-10-16T00:27:17;5.20;;;3.00;;
6973;SDS011;3527;52.376;8.990;2022-10-16T00:30:04;4.60;;;2.93;;
6973;SDS011;3527;52.376;8.990;2022-10-16T00:32:52;6.50;;;3.10;;
6973;SDS011;3527;52.376;8.990;2022-10-16T00:35:39;4.30;;;2.80;;
6973;SDS011;3527;52.376;8.990;2022-10-16T00:38:26;4.97;;;2.87;;
6973;SDS011;3527;52.376;8.990;2022-10-16T00:41:14;4.73;;;3.13;;
6973;SDS011;3527;52.376;8.990;2022-10-16T00:44:03;4.90;;;2.93;;
6973;SDS011;3527;52.376;8.990;2022-10-16T00:47:34;4.40;;;3.17;;
6973;SDS011;3527;52.376;8.990;2022-10-16T00:50:26;5.13;;;3.80;;
6973;SDS011;3527;52.376;8.990;2022-10-16T00:53:16;6.00;;;3.40;;
6973;SDS011;3527;52.376;8.990;2022-10-16T00:56:03;5.40;;;3.67;;
6973;SDS011;3527;52.376;8.990;2022-10-16T00:58:51;9.13;;;4.33;;
6973;SDS011;3527;52.376;8.990;2022-10-16T01:01:38;7.30;;;4.33;;
6973;SDS011;3527;52.376;8.990;2022-10-16T01:04:26;7.93;;;4.20;;
6973;SDS011;3527;52.376;8.990;2022-10-16T01:16:36;7.20;;;4.60;;
6973;SDS011;3527;52.376;8.990;2022-10-16T01:19:39;8.37;;;4.77;;
6973;SDS011;3527;52.376;8.990;2022-10-16T01:22:39;7.87;;;5.10;;
6973;SDS011;3527;52.376;8.990;2022-10-16T01:32:01;6.97;;;4.97;;
6973;SDS011;3527;52.376;8.990;2022-10-16T01:34:59;8.03;;;4.73;;
6973;SDS011;3527;52.376;8.990;2022-10-16T01:38:03;10.23;;;4.90;;
6973;SDS011;3527;52.376;8.990;2022-10-16T01:40:58;7.67;;;4.47;;
6973;SDS011;3527;52.376;8.990;2022-10-16T01:43:49;7.87;;;4.27;;
6973;SDS011;3527;52.376;8.990;2022-10-16T01:46:45;7.80;;;4.50;;
6973;SDS011;3527;52.376;8.990;2022-10-16T01:49:35;7.43;;;4.70;;
6973;SDS011;3527;52.376;8.990;2022-10-16T01:52:26;7.07;;;4.60;;
6973;SDS011;3527;52.376;8.990;2022-10-16T01:55:17;9.60;;;4.67;;
6973;SDS011;3527;52.376;8.990;2022-10-16T01:58:11;8.63;;;4.47;;
6973;SDS011;3527;52.376;8.990;2022-10-16T02:01:00;9.20;;;4.73;;
6973;SDS011;3527;52.376;8.990;2022-10-16T02:03:50;9.87;;;4.50;;
6973;SDS011;3527;52.376;8.990;2022-10-16T02:06:40;9.03;;;5.30;;
6973;SDS011;3527;52.376;8.990;2022-10-16T02:09:27;6.07;;;4.47;;
6973;SDS011;3527;52.376;8.990;2022-10-16T02:12:35;6.37;;;4.07;;
6973;SDS011;3527;52.376;8.990;2022-10-16T02:15:26;6.87;;;4.50;;
6973;SDS011;3527;52.376;8.990;2022-10-16T02:18:13;9.97;;;5.20;;
6973;SDS011;3527;52.376;8.990;2022-10-16T02:21:02;9.80;;;5.20;;
6973;SDS011;3527;52.376;8.990;2022-10-16T02:26:42;9.07;;;5.37;;
6973;SDS011;3527;52.376;8.990;2022-10-16T02:29:45;8.97;;;5.80;;
6973;SDS011;3527;52.376;8.990;2022-10-16T02:32:37;11.50;;;6.00;;
6973;SDS011;3527;52.376;8.990;2022-10-16T02:35:26;7.37;;;4.83;;
6973;SDS011;3527;52.376;8.990;2022-10-16T02:38:14;10.83;;;5.70;;
6973;SDS011;3527;52.376;8.990;2022-10-16T02:41:03;8.17;;;5.40;;
6973;SDS011;3527;52.376;8.990;2022-10-16T02:43:51;8.63;;;5.30;;
6973;SDS011;3527;52.376;8.990;2022-10-16T02:46:38;10.07;;;5.27;;
6973;SDS011;3527;52.376;8.990;2022-10-16T02:49:25;11.47;;;6.10;;
6973;SDS011;3527;52.376;8.990;2022-10-16T02:52:12;11.87;;;5.53;;
6973;SDS011;3527;52.376;8.990;2022-10-16T02:54:59;8.33;;;5.87;;
6973;SDS011;3527;52.376;8.990;2022-10-16T02:57:46;7.47;;;5.63;;
6973;SDS011;3527;52.376;8.990;2022-10-16T03:00:33;10.20;;;5.60;;
6973;SDS011;3527;52.376;8.990;2022-10-16T03:03:20;11.10;;;6.30;;
6973;SDS011;3527;52.376;8.990;2022-10-16T03:06:07;9.93;;;5.73;;
6973;SDS011;3527;52.376;8.990;2022-10-16T03:08:54;10.50;;;6.07;;
6973;SDS011;3527;52.376;8.990;2022-10-16T03:11:41;10.43;;;5.57;;
6973;SDS011;3527;52.376;8.990;2022-10-16T03:14:28;9.00;;;6.00;;
6973;SDS011;3527;52.376;8.990;2022-10-16T03:17:15;10.80;;;6.33;;
6973;SDS011;3527;52.376;8.990;2022-10-16T03:20:03;11.33;;;6.30;;
6973;SDS011;3527;52.376;8.990;2022-10-16T03:22:50;8.77;;;6.33;;
6973;SDS011;3527;52.376;8.990;2022-10-16T03:25:37;9.73;;;7.20;;
6973;SDS011;3527;52.376;8.990;2022-10-16T03:28:24;10.00;;;6.63;;
6973;SDS011;3527;52.376;8.990;2022-10-16T03:31:11;10.87;;;6.97;;
6973;SDS011;3527;52.376;8.990;2022-10-16T03:33:58;15.23;;;8.37;;
6973;SDS011;3527;52.376;8.990;2022-10-16T03:36:46;11.47;;;8.20;;
6973;SDS011;3527;52.376;8.990;2022-10-16T03:39:32;12.73;;;8.80;;
6973;SDS011;3527;52.376;8.990;2022-10-16T03:42:19;14.93;;;8.93;;
6973;SDS011;3527;52.376;8.990;2022-10-16T03:45:06;15.37;;;8.97;;
6973;SDS011;3527;52.376;8.990;2022-10-16T03:47:54;15.23;;;8.50;;
6973;SDS011;3527;52.376;8.990;2022-10-16T03:50:41;15.50;;;8.83;;
6973;SDS011;3527;52.376;8.990;2022-10-16T03:53:28;14.07;;;8.67;;
6973;SDS011;3527;52.376;8.990;2022-10-16T03:56:14;13.43;;;9.70;;
6973;SDS011;3527;52.376;8.990;2022-10-16T03:59:01;13.87;;;8.30;;
6973;SDS011;3527;52.376;8.990;2022-10-16T04:01:49;12.50;;;9.73;;
6973;SDS011;3527;52.376;8.990;2022-10-16T04:04:35;11.83;;;8.97;;
6973;SDS011;3527;52.376;8.990;2022-10-16T04:07:22;15.30;;;8.60;;
6973;SDS011;3527;52.376;8.990;2022-10-16T04:10:10;13.93;;;8.80;;
6973;SDS011;3527;52.376;8.990;2022-10-16T04:12:57;13.00;;;8.40;;
6973;SDS011;3527;52.376;8.990;2022-10-16T04:15:44;14.40;;;8.43;;
6973;SDS011;3527;52.376;8.990;2022-10-16T04:18:32;11.97;;;8.43;;
6973;SDS011;3527;52.376;8.990;2022-10-16T04:21:19;12.93;;;9.07;;
6973;SDS011;3527;52.376;8.990;2022-10-16T04:24:06;14.70;;;8.00;;
6973;SDS011;3527;52.376;8.990;2022-10-16T04:26:53;11.33;;;7.80;;
6973;SDS011;3527;52.376;8.990;2022-10-16T04:29:40;17.60;;;7.87;;
6973;SDS011;3527;52.376;8.990;2022-10-16T04:32:27;12.73;;;7.97;;
6973;SDS011;3527;52.376;8.990;2022-10-16T04:35:14;13.87;;;7.43;;
6973;SDS011;3527;52.376;8.990;2022-10-16T04:38:01;13.83;;;7.23;;
6973;SDS011;3527;52.376;8.990;2022-10-16T04:40:48;12.50;;;8.00;;
6973;SDS011;3527;52.376;8.990;2022-10-16T04:43:35;11.83;;;7.50;;
6973;SDS011;3527;52.376;8.990;2022-10-16T04:46:22;11.80;;;7.23;;
6973;SDS011;3527;52.376;8.990;2022-10-16T04:49:09;15.07;;;8.10;;
6973;SDS011;3527;52.376;8.990;2022-10-16T04:51:56;13.47;;;8.40;;
6973;SDS011;3527;52.376;8.990;2022-10-16T04:54:43;12.93;;;7.93;;
6973;SDS011;3527;52.376;8.990;2022-10-16T04:57:31;10.93;;;7.57;;
6973;SDS011;3527;52.376;8.990;2022-10-16T05:00:19;15.00;;;7.73;;
6973;SDS011;3527;52.376;8.990;2022-10-16T05:03:06;11.00;;;7.23;;
6973;SDS011;3527;52.376;8.990;2022-10-16T05:05:55;7.70;;;6.80;;
6973;SDS011;3527;52.376;8.990;2022-10-16T05:08:43;11.10;;;6.30;;
6973;SDS011;3527;52.376;8.990;2022-10-16T05:11:30;12.67;;;6.37;;
6973;SDS011;3527;52.376;8.990;2022-10-16T05:14:17;13.27;;;5.53;;
6973;SDS011;3527;52.376;8.990;2022-10-16T05:17:04;9.97;;;5.50;;
6973;SDS011;3527;52.376;8.990;2022-10-16T05:19:51;12.63;;;5.47;;
6973;SDS011;3527;52.376;8.990;2022-10-16T05:22:38;11.23;;;5.73;;
6973;SDS011;3527;52.376;8.990;2022-10-16T05:25:25;17.40;;;5.67;;
6973;SDS011;3527;52.376;8.990;2022-10-16T05:28:12;8.67;;;6.03;;
6973;SDS011;3527;52.376;8.990;2022-10-16T05:31:03;10.00;;;5.50;;
6973;SDS011;3527;52.376;8.990;2022-10-16T05:33:52;10.87;;;5.90;;
6973;SDS011;3527;52.376;8.990;2022-10-16T05:36:44;10.40;;;6.40;;
6973;SDS011;3527;52.376;8.990;2022-10-16T05:39:31;9.87;;;5.80;;
6973;SDS011;3527;52.376;8.990;2022-10-16T05:42:18;8.63;;;6.07;;
6973;SDS011;3527;52.376;8.990;2022-10-16T05:45:06;11.47;;;6.03;;
6973;SDS011;3527;52.376;8.990;2022-10-16T05:47:55;9.43;;;6.00;;
6973;SDS011;3527;52.376;8.990;2022-10-16T05:50:42;7.03;;;5.30;;
6973;SDS011;3527;52.376;8.990;2022-10-16T05:53:30;8.13;;;5.40;;
6973;SDS011;3527;52.376;8.990;2022-10-16T05:56:19;9.00;;;5.57;;
6973;SDS011;3527;52.376;8.990;2022-10-16T05:59:06;7.83;;;5.67;;
6973;SDS011;3527;52.376;8.990;2022-10-16T06:01:53;8.63;;;5.77;;
6973;SDS011;3527;52.376;8.990;2022-10-16T06:04:40;6.90;;;5.33;;
6973;SDS011;3527;52.376;8.990;2022-10-16T06:07:27;6.57;;;5.10;;
6973;SDS011;3527;52.376;8.990;2022-10-16T06:10:15;7.50;;;5.50;;
6973;SDS011;3527;52.376;8.990;2022-10-16T06:13:02;6.10;;;5.33;;
6973;SDS011;3527;52.376;8.990;2022-10-16T06:15:49;6.13;;;5.17;;
6973;SDS011;3527;52.376;8.990;2022-10-16T06:18:36;6.33;;;4.67;;
6973;SDS011;3527;52.376;8.990;2022-10-16T06:21:23;6.27;;;5.10;;
6973;SDS011;3527;52.376;8.990;2022-10-16T06:24:12;8.43;;;4.30;;
6973;SDS011;3527;52.376;8.990;2022-10-16T06:26:59;5.67;;;4.47;;
6973;SDS011;3527;52.376;8.990;2022-10-16T06:29:46;5.37;;;4.03;;
6973;SDS011;3527;52.376;8.990;2022-10-16T06:32:33;6.97;;;4.00;;
6973;SDS011;3527;52.376;8.990;2022-10-16T06:35:20;4.27;;;3.70;;
6973;SDS011;3527;52.376;8.990;2022-10-16T06:38:07;4.67;;;3.20;;
6973;SDS011;3527;52.376;8.990;2022-10-16T06:40:54;5.63;;;3.40;;
6973;SDS011;3527;52.376;8.990;2022-10-16T06:43:41;5.10;;;2.90;;
6973;SDS011;3527;52.376;8.990;2022-10-16T06:46:28;4.03;;;2.73;;
6973;SDS011;3527;52.376;8.990;2022-10-16T06:49:15;3.80;;;2.37;;
6973;SDS011;3527;52.376;8.990;2022-10-16T06:52:07;2.53;;;2.20;;
6973;SDS011;3527;52.376;8.990;2022-10-16T06:54:54;5.30;;;2.00;;
6973;SDS011;3527;52.376;8.990;2022-10-16T06:57:41;4.60;;;2.00;;
6973;SDS011;3527;52.376;8.990;2022-10-16T07:00:28;3.53;;;1.67;;
6973;SDS011;3527;52.376;8.990;2022-10-16T07:03:15;2.60;;;1.50;;
6973;SDS011;3527;52.376;8.990;2022-10-16T07:06:03;2.37;;;1.43;;
6973;SDS011;3527;52.376;8.990;2022-10-16T07:08:51;2.87;;;1.30;;
6973;SDS011;3527;52.376;8.990;2022-10-16T07:11:38;3.10;;;1.50;;
6973;SDS011;3527;52.376;8.990;2022-10-16T07:14:26;2.10;;;1.30;;
6973;SDS011;3527;52.376;8.990;2022-10-16T07:17:13;2.93;;;1.17;;
6973;SDS011;3527;52.376;8.990;2022-10-16T07:20:01;3.17;;;1.60;;
6973;SDS011;3527;52.376;8.990;2022-10-16T07:22:48;2.70;;;1.27;;
6973;SDS011;3527;52.376;8.990;2022-10-16T07:25:35;2.23;;;1.20;;
6973;SDS011;3527;52.376;8.990;2022-10-16T07:28:22;3.93;;;1.30;;
6973;SDS011;3527;52.376;8.990;2022-10-16T07:31:11;2.23;;;1.30;;
6973;SDS011;3527;52.376;8.990;2022-10-16T07:34:00;2.97;;;1.17;;
6973;SDS011;3527;52.376;8.990;2022-10-16T07:36:47;3.60;;;1.30;;
6973;SDS011;3527;52.376;8.990;2022-10-16T07:39:35;2.57;;;1.43;;
6973;SDS011;3527;52.376;8.990;2022-10-16T07:42:22;3.53;;;1.40;;
6973;SDS011;3527;52.376;8.990;2022-10-16T07:45:09;2.00;;;1.50;;
6973;SDS011;3527;52.376;8.990;2022-10-16T07:47:56;2.57;;;1.47;;
6973;SDS011;3527;52.376;8.990;2022-10-16T07:50:43;1.33;;;1.20;;
6973;SDS011;3527;52.376;8.990;2022-10-16T07:53:32;2.43;;;1.20;;
6973;SDS011;3527;52.376;8.990;2022-10-16T07:56:19;2.37;;;1.47;;
6973;SDS011;3527;52.376;8.990;2022-10-16T07:59:07;5.83;;;1.40;;
6973;SDS011;3527;52.376;8.990;2022-10-16T08:01:54;1.90;;;1.13;;
6973;SDS011;3527;52.376;8.990;2022-10-16T08:04:41;1.70;;;1.20;;
6973;SDS011;3527;52.376;8.990;2022-10-16T08:07:28;2.70;;;1.30;;
6973;SDS011;3527;52.376;8.990;2022-10-16T08:10:16;4.13;;;1.33;;
6973;SDS011;3527;52.376;8.990;2022-10-16T08:13:05;4.57;;;1.50;;
6973;SDS011;3527;52.376;8.990;2022-10-16T08:15:53;2.60;;;1.10;;
6973;SDS011;3527;52.376;8.990;2022-10-16T08:18:41;1.50;;;1.40;;
6973;SDS011;3527;52.376;8.990;2022-10-16T08:21:28;2.90;;;1.47;;
6973;SDS011;3527;52.376;8.990;2022-10-16T08:24:15;5.87;;;1.33;;
6973;SDS011;3527;52.376;8.990;2022-10-16T08:27:02;2.07;;;1.20;;
6973;SDS011;3527;52.376;8.990;2022-10-16T08:29:50;2.87;;;1.47;;
6973;SDS011;3527;52.376;8.990;2022-10-16T08:32:37;3.80;;;1.60;;
6973;SDS011;3527;52.376;8.990;2022-10-16T08:35:24;1.93;;;1.20;;
6973;SDS011;3527;52.376;8.990;2022-10-16T08:38:11;2.27;;;1.70;;
6973;SDS011;3527;52.376;8.990;2022-10-16T08:49:58;3.20;;;1.40;;
6973;SDS011;3527;52.376;8.990;2022-10-16T08:52:47;3.27;;;1.40;;
6973;SDS011;3527;52.376;8.990;2022-10-16T08:55:38;4.13;;;1.30;;
6973;SDS011;3527;52.376;8.990;2022-10-16T08:58:29;2.13;;;1.40;;
6973;SDS011;3527;52.376;8.990;2022-10-16T09:01:17;4.67;;;1.57;;
6973;SDS011;3527;52.376;8.990;2022-10-16T09:07:45;2.63;;;1.43;;
6973;SDS011;3527;52.376;8.990;2022-10-16T09:23:27;2.70;;;1.53;;
6973;SDS011;3527;52.376;8.990;2022-10-16T09:26:16;5.27;;;1.50;;
6973;SDS011;3527;52.376;8.990;2022-10-16T09:29:06;4.57;;;1.60;;
6973;SDS011;3527;52.376;8.990;2022-10-16T09:31:58;2.93;;;1.40;;
6973;SDS011;3527;52.376;8.990;2022-10-16T09:34:58;3.33;;;1.70;;
6973;SDS011;3527;52.376;8.990;2022-10-16T09:37:45;2.53;;;1.50;;
6973;SDS011;3527;52.376;8.990;2022-10-16T09:40:37;2.97;;;1.63;;
6973;SDS011;3527;52.376;8.990;2022-10-16T09:46:38;3.73;;;1.90;;
6973;SDS011;3527;52.376;8.990;2022-10-16T09:49:26;3.43;;;1.60;;
6973;SDS011;3527;52.376;8.990;2022-10-16T09:52:14;3.47;;;1.77;;
6973;SDS011;3527;52.376;8.990;2022-10-16T09:55:08;4.77;;;1.77;;
6973;SDS011;3527;52.376;8.990;2022-10-16T09:58:00;4.40;;;1.77;;
6973;SDS011;3527;52.376;8.990;2022-10-16T10:00:51;2.93;;;1.70;;
6973;SDS011;3527;52.376;8.990;2022-10-16T10:03:41;4.73;;;2.00;;
6973;SDS011;3527;52.376;8.990;2022-10-16T10:06:34;3.50;;;1.80;;
6973;SDS011;3527;52.376;8.990;2022-10-16T10:09:25;2.63;;;1.63;;
6973;SDS011;3527;52.376;8.990;2022-10-16T10:12:32;3.20;;;1.97;;
6973;SDS011;3527;52.376;8.990;2022-10-16T10:15:22;2.80;;;1.57;;
6973;SDS011;3527;52.376;8.990;2022-10-16T10:18:17;4.57;;;1.80;;
6973;SDS011;3527;52.376;8.990;2022-10-16T10:21:12;2.57;;;1.50;;
6973;SDS011;3527;52.376;8.990;2022-10-16T10:24:02;3.97;;;1.43;;
6973;SDS011;3527;52.376;8.990;2022-10-16T10:26:51;3.87;;;1.83;;
6973;SDS011;3527;52.376;8.990;2022-10-16T10:35:35;3.20;;;1.50;;
6973;SDS011;3527;52.376;8.990;2022-10-16T10:38:49;4.67;;;1.53;;
6973;SDS011;3527;52.376;8.990;2022-10-16T10:54:16;3.03;;;1.20;;
6973;SDS011;3527;52.376;8.990;2022-10-16T11:00:26;4.20;;;1.10;;
6973;SDS011;3527;52.376;8.990;2022-10-16T11:03:40;2.43;;;1.30;;
6973;SDS011;3527;52.376;8.990;2022-10-16T11:06:52;3.27;;;1.40;;
6973;SDS011;3527;52.376;8.990;2022-10-16T11:09:45;3.37;;;1.50;;
6973;SDS011;3527;52.376;8.990;2022-10-16T11:12:38;2.43;;;1.40;;
6973;SDS011;3527;52.376;8.990;2022-10-16T11:15:31;3.97;;;1.40;;
6973;SDS011;3527;52.376;8.990;2022-10-16T11:18:29;2.83;;;1.20;;
6973;SDS011;3527;52.376;8.990;2022-10-16T11:21:25;4.30;;;1.70;;
6973;SDS011;3527;52.376;8.990;2022-10-16T11:27:37;2.80;;;1.60;;
6973;SDS011;3527;52.376;8.990;2022-10-16T11:30:30;4.13;;;1.47;;
6973;SDS011;3527;52.376;8.990;2022-10-16T11:36:31;4.03;;;1.70;;
6973;SDS011;3527;52.376;8.990;2022-10-16T11:39:26;2.63;;;1.60;;
6973;SDS011;3527;52.376;8.990;2022-10-16T11:42:32;3.30;;;1.50;;
6973;SDS011;3527;52.376;8.990;2022-10-16T11:45:39;4.60;;;1.50;;
6973;SDS011;3527;52.376;8.990;2022-10-16T11:51:43;4.10;;;1.47;;
6973;SDS011;3527;52.376;8.990;2022-10-16T11:54:45;4.23;;;1.30;;
6973;SDS011;3527;52.376;8.990;2022-10-16T11:57:39;3.40;;;1.40;;
6973;SDS011;3527;52.376;8.990;2022-10-16T12:00:31;7.77;;;1.70;;
6973;SDS011;3527;52.376;8.990;2022-10-16T12:03:41;3.57;;;1.50;;
6973;SDS011;3527;52.376;8.990;2022-10-16T12:09:44;3.13;;;1.20;;
6973;SDS011;3527;52.376;8.990;2022-10-16T12:18:32;2.93;;;1.20;;
6973;SDS011;3527;52.376;8.990;2022-10-16T12:21:19;3.23;;;1.50;;
6973;SDS011;3527;52.376;8.990;2022-10-16T12:24:36;5.60;;;1.80;;
6973;SDS011;3527;52.376;8.990;2022-10-16T12:27:29;6.23;;;1.47;;
6973;SDS011;3527;52.376;8.990;2022-10-16T12:30:20;3.63;;;1.00;;
6973;SDS011;3527;52.376;8.990;2022-10-16T12:33:21;3.03;;;1.30;;
6973;SDS011;3527;52.376;8.990;2022-10-16T12:36:13;3.87;;;1.20;;
6973;SDS011;3527;52.376;8.990;2022-10-16T12:39:16;4.80;;;1.33;;
6973;SDS011;3527;52.376;8.990;2022-10-16T12:42:20;2.60;;;1.23;;
6973;SDS011;3527;52.376;8.990;2022-10-16T12:45:30;2.63;;;1.20;;
6973;SDS011;3527;52.376;8.990;2022-10-16T12:48:20;2.07;;;1.10;;
6973;SDS011;3527;52.376;8.990;2022-10-16T12:51:25;2.30;;;1.23;;
6973;SDS011;3527;52.376;8.990;2022-10-16T13:00:25;3.33;;;1.20;;
6973;SDS011;3527;52.376;8.990;2022-10-16T13:06:58;3.57;;;1.40;;
6973;SDS011;3527;52.376;8.990;2022-10-16T13:22:38;5.00;;;1.53;;
6973;SDS011;3527;52.376;8.990;2022-10-16T13:28:35;2.33;;;1.20;;
6973;SDS011;3527;52.376;8.990;2022-10-16T13:31:25;4.37;;;1.50;;
6973;SDS011;3527;52.376;8.990;2022-10-16T13:34:13;3.77;;;1.20;;
6973;SDS011;3527;52.376;8.990;2022-10-16T13:37:15;2.90;;;1.20;;
6973;SDS011;3527;52.376;8.990;2022-10-16T13:40:20;2.80;;;1.20;;
6973;SDS011;3527;52.376;8.990;2022-10-16T13:43:09;2.77;;;1.37;;
6973;SDS011;3527;52.376;8.990;2022-10-16T13:45:57;4.30;;;1.40;;
6973;SDS011;3527;52.376;8.990;2022-10-16T13:51:58;3.70;;;1.60;;
6973;SDS011;3527;52.376;8.990;2022-10-16T13:54:46;4.77;;;1.60;;
6973;SDS011;3527;52.376;8.990;2022-10-16T13:57:34;3.23;;;1.47;;
6973;SDS011;3527;52.376;8.990;2022-10-16T14:00:22;4.17;;;1.73;;
6973;SDS011;3527;52.376;8.990;2022-10-16T14:03:13;4.13;;;1.60;;
6973;SDS011;3527;52.376;8.990;2022-10-16T14:06:02;2.73;;;1.60;;
6973;SDS011;3527;52.376;8.990;2022-10-16T14:11:54;2.97;;;1.20;;
6973;SDS011;3527;52.376;8.990;2022-10-16T14:14:45;5.13;;;1.50;;
6973;SDS011;3527;52.376;8.990;2022-10-16T14:17:34;4.10;;;1.53;;
6973;SDS011;3527;52.376;8.990;2022-10-16T14:20:24;6.50;;;1.33;;
6973;SDS011;3527;52.376;8.990;2022-10-16T14:23:19;4.33;;;1.40;;
6973;SDS011;3527;52.376;8.990;2022-10-16T14:32:00;3.60;;;1.70;;
6973;SDS011;3527;52.376;8.990;2022-10-16T14:34:53;5.40;;;1.40;;
6973;SDS011;3527;52.376;8.990;2022-10-16T14:37:40;2.20;;;1.20;;
6973;SDS011;3527;52.376;8.990;2022-10-16T14:40:35;2.03;;;1.10;;
6973;SDS011;3527;52.376;8.990;2022-10-16T14:43:30;3.43;;;1.30;;
6973;SDS011;3527;52.376;8.990;2022-10-16T14:46:19;2.93;;;1.20;;
6973;SDS011;3527;52.376;8.990;2022-10-16T14:51:58;2.93;;;1.50;;
6973;SDS011;3527;52.376;8.990;2022-10-16T14:54:48;2.80;;;1.40;;
6973;SDS011;3527;52.376;8.990;2022-10-16T14:57:36;4.00;;;1.40;;
6973;SDS011;3527;52.376;8.990;2022-10-16T15:00:25;2.23;;;1.10;;
6973;SDS011;3527;52.376;8.990;2022-10-16T15:03:12;1.87;;;0.90;;
6973;SDS011;3527;52.376;8.990;2022-10-16T15:05:59;2.63;;;1.23;;
6973;SDS011;3527;52.376;8.990;2022-10-16T15:08:46;2.50;;;1.10;;
6973;SDS011;3527;52.376;8.990;2022-10-16T15:11:34;2.17;;;1.17;;
6973;SDS011;3527;52.376;8.990;2022-10-16T15:14:21;3.53;;;1.07;;
6973;SDS011;3527;52.376;8.990;2022-10-16T15:17:10;3.80;;;1.07;;
6973;SDS011;3527;52.376;8.990;2022-10-16T15:19:57;4.03;;;1.30;;
6973;SDS011;3527;52.376;8.990;2022-10-16T15:22:45;4.40;;;1.10;;
6973;SDS011;3527;52.376;8.990;2022-10-16T15:25:34;3.30;;;1.20;;
6973;SDS011;3527;52.376;8.990;2022-10-16T15:28:27;4.13;;;1.20;;
6973;SDS011;3527;52.376;8.990;2022-10-16T15:31:14;1.90;;;1.17;;
6973;SDS011;3527;52.376;8.990;2022-10-16T15:34:01;2.37;;;1.10;;
6973;SDS011;3527;52.376;8.990;2022-10-16T15:36:50;2.67;;;1.10;;
6973;SDS011;3527;52.376;8.990;2022-10-16T15:39:37;3.97;;;1.33;;
6973;SDS011;3527;52.376;8.990;2022-10-16T15:42:26;3.97;;;1.30;;
6973;SDS011;3527;52.376;8.990;2022-10-16T15:45:14;2.77;;;1.20;;
6973;SDS011;3527;52.376;8.990;2022-10-16T15:48:02;4.70;;;1.30;;
6973;SDS011;3527;52.376;8.990;2022-10-16T15:50:50;3.97;;;1.40;;
6973;SDS011;3527;52.376;8.990;2022-10-16T15:53:36;4.70;;;1.30;;
6973;SDS011;3527;52.376;8.990;2022-10-16T15:56:23;1.30;;;1.10;;
6973;SDS011;3527;52.376;8.990;2022-10-16T15:59:12;4.20;;;1.53;;
6973;SDS011;3527;52.376;8.990;2022-10-16T16:01:59;3.37;;;1.37;;
6973;SDS011;3527;52.376;8.990;2022-10-16T16:04:46;5.10;;;1.33;;
6973;SDS011;3527;52.376;8.990;2022-10-16T16:07:33;3.43;;;1.30;;
6973;SDS011;3527;52.376;8.990;2022-10-16T16:10:21;3.97;;;1.40;;
6973;SDS011;3527;52.376;8.990;2022-10-16T16:13:08;3.07;;;1.57;;
6973;SDS011;3527;52.376;8.990;2022-10-16T16:15:56;2.47;;;1.43;;
6973;SDS011;3527;52.376;8.990;2022-10-16T16:18:43;3.57;;;1.60;;
6973;SDS011;3527;52.376;8.990;2022-10-16T16:21:35;4.73;;;1.33;;
6973;SDS011;3527;52.376;8.990;2022-10-16T16:24:22;5.43;;;1.70;;
6973;SDS011;3527;52.376;8.990;2022-10-16T16:27:09;4.50;;;1.60;;
6973;SDS011;3527;52.376;8.990;2022-10-16T16:29:57;5.53;;;1.70;;
6973;SDS011;3527;52.376;8.990;2022-10-16T16:32:44;3.13;;;1.50;;
6973;SDS011;3527;52.376;8.990;2022-10-16T16:35:31;4.27;;;1.70;;
6973;SDS011;3527;52.376;8.990;2022-10-16T16:38:18;4.40;;;1.83;;
6973;SDS011;3527;52.376;8.990;2022-10-16T16:41:15;4.03;;;2.10;;
6973;SDS011;3527;52.376;8.990;2022-10-16T16:44:06;5.43;;;2.10;;
6973;SDS011;3527;52.376;8.990;2022-10-16T16:46:55;5.63;;;1.97;;
6973;SDS011;3527;52.376;8.990;2022-10-16T16:49:42;2.30;;;1.97;;
6973;SDS011;3527;52.376;8.990;2022-10-16T16:52:29;3.73;;;2.10;;
6973;SDS011;3527;52.376;8.990;2022-10-16T16:55:16;5.40;;;2.33;;
6973;SDS011;3527;52.376;8.990;2022-10-16T16:58:03;4.80;;;2.70;;
6973;SDS011;3527;52.376;8.990;2022-10-16T17:00:51;5.50;;;3.23;;
6973;SDS011;3527;52.376;8.990;2022-10-16T17:03:54;4.57;;;3.40;;
6973;SDS011;3527;52.376;8.990;2022-10-16T17:06:42;4.50;;;3.20;;
6973;SDS011;3527;52.376;8.990;2022-10-16T17:09:31;5.30;;;2.70;;
6973;SDS011;3527;52.376;8.990;2022-10-16T17:12:18;9.40;;;4.00;;
6973;SDS011;3527;52.376;8.990;2022-10-16T17:15:06;4.80;;;3.40;;
6973;SDS011;3527;52.376;8.990;2022-10-16T17:17:53;4.10;;;3.03;;
6973;SDS011;3527;52.376;8.990;2022-10-16T17:20:40;5.33;;;3.90;;
6973;SDS011;3527;52.376;8.990;2022-10-16T17:23:28;8.40;;;4.17;;
6973;SDS011;3527;52.376;8.990;2022-10-16T17:26:15;8.67;;;4.90;;
6973;SDS011;3527;52.376;8.990;2022-10-16T17:29:03;6.20;;;4.50;;
6973;SDS011;3527;52.376;8.990;2022-10-16T17:31:51;7.70;;;4.03;;
6973;SDS011;3527;52.376;8.990;2022-10-16T17:34:38;8.40;;;4.40;;
6973;SDS011;3527;52.376;8.990;2022-10-16T17:37:25;8.90;;;5.47;;
6973;SDS011;3527;52.376;8.990;2022-10-16T17:40:12;15.20;;;7.67;;
6973;SDS011;3527;52.376;8.990;2022-10-16T17:42:59;10.27;;;7.13;;
6973;SDS011;3527;52.376;8.990;2022-10-16T17:45:47;12.97;;;6.73;;
6973;SDS011;3527;52.376;8.990;2022-10-16T17:48:38;11.87;;;7.43;;
6973;SDS011;3527;52.376;8.990;2022-10-16T17:51:29;14.60;;;8.03;;
6973;SDS011;3527;52.376;8.990;2022-10-16T17:54:18;13.60;;;7.60;;
6973;SDS011;3527;52.376;8.990;2022-10-16T17:57:05;7.40;;;5.83;;
6973;SDS011;3527;52.376;8.990;2022-10-16T17:59:55;8.73;;;5.60;;
6973;SDS011;3527;52.376;8.990;2022-10-16T18:02:44;8.70;;;5.97;;
6973;SDS011;3527;52.376;8.990;2022-10-16T18:05:37;6.47;;;5.10;;
6973;SDS011;3527;52.376;8.990;2022-10-16T18:08:24;6.30;;;5.20;;
6973;SDS011;3527;52.376;8.990;2022-10-16T18:11:14;7.67;;;5.73;;
6973;SDS011;3527;52.376;8.990;2022-10-16T18:14:01;7.73;;;5.07;;
6973;SDS011;3527;52.376;8.990;2022-10-16T18:16:49;10.73;;;5.53;;
6973;SDS011;3527;52.376;8.990;2022-10-16T18:19:38;7.73;;;5.07;;
6973;SDS011;3527;52.376;8.990;2022-10-16T18:22:26;7.50;;;5.00;;
6973;SDS011;3527;52.376;8.990;2022-10-16T18:25:14;7.77;;;5.20;;
6973;SDS011;3527;52.376;8.990;2022-10-16T18:28:02;8.40;;;5.50;;
6973;SDS011;3527;52.376;8.990;2022-10-16T18:31:06;6.20;;;5.27;;
6973;SDS011;3527;52.376;8.990;2022-10-16T18:34:03;9.13;;;5.57;;
6973;SDS011;3527;52.376;8.990;2022-10-16T18:36:50;7.07;;;5.73;;
6973;SDS011;3527;52.376;8.990;2022-10-16T18:39:40;10.47;;;6.30;;
6973;SDS011;3527;52.376;8.990;2022-10-16T18:42:32;7.87;;;5.50;;
6973;SDS011;3527;52.376;8.990;2022-10-16T18:45:19;9.20;;;5.90;;
6973;SDS011;3527;52.376;8.990;2022-10-16T18:48:07;6.33;;;5.53;;
6973;SDS011;3527;52.376;8.990;2022-10-16T18:51:04;6.63;;;6.03;;
6973;SDS011;3527;52.376;8.990;2022-10-16T18:53:59;8.17;;;5.67;;
6973;SDS011;3527;52.376;8.990;2022-10-16T18:56:49;11.17;;;5.70;;
6973;SDS011;3527;52.376;8.990;2022-10-16T18:59:37;7.40;;;6.00;;
6973;SDS011;3527;52.376;8.990;2022-10-16T19:02:25;7.43;;;5.90;;
6973;SDS011;3527;52.376;8.990;2022-10-16T19:05:14;9.23;;;6.60;;
6973;SDS011;3527;52.376;8.990;2022-10-16T19:08:01;9.07;;;6.07;;
6973;SDS011;3527;52.376;8.990;2022-10-16T19:10:48;7.70;;;6.73;;
6973;SDS011;3527;52.376;8.990;2022-10-16T19:13:36;8.37;;;6.60;;
6973;SDS011;3527;52.376;8.990;2022-10-16T19:16:28;6.63;;;5.40;;
6973;SDS011;3527;52.376;8.990;2022-10-16T19:19:17;6.87;;;5.60;;
6973;SDS011;3527;52.376;8.990;2022-10-16T19:22:04;6.43;;;5.30;;
6973;SDS011;3527;52.376;8.990;2022-10-16T19:25:17;12.00;;;5.20;;
6973;SDS011;3527;52.376;8.990;2022-10-16T19:28:08;7.17;;;5.57;;
6973;SDS011;3527;52.376;8.990;2022-10-16T19:30:56;8.53;;;6.30;;
6973;SDS011;3527;52.376;8.990;2022-10-16T19:33:52;5.90;;;5.30;;
6973;SDS011;3527;52.376;8.990;2022-10-16T19:36:41;6.70;;;5.70;;
6973;SDS011;3527;52.376;8.990;2022-10-16T19:39:29;6.97;;;5.30;;
6973;SDS011;3527;52.376;8.990;2022-10-16T19:42:18;6.83;;;5.63;;